createdAt,value
2018-09-30T00:01:53.938Z,99.90
2018-09-30T00:04:22.486Z,99.90
2018-09-30T00:06:51.041Z,99.90
2018-09-30T00:09:22.521Z,99.90
2018-09-30T00:11:51.085Z,99.90
2018-09-30T00:14:19.622Z,99.90
2018-09-30T00:16:48.192Z,99.90
2018-09-30T00:19:16.773Z,99.90
2018-09-30T00:21:45.333Z,99.90
2018-09-30T00:24:19.294Z,99.90
2018-09-30T00:26:53.132Z,99.90
2018-09-30T00:29:21.713Z,99.90
2018-09-30T00:31:50.386Z,99.90
2018-09-30T00:34:25.447Z,99.90
2018-09-30T00:36:55.894Z,99.90
2018-09-30T00:39:24.733Z,99.90
2018-09-30T00:41:53.754Z,99.90
2018-09-30T00:44:22.518Z,99.90
2018-09-30T00:46:51.431Z,99.90
2018-09-30T00:49:19.977Z,99.90
2018-09-30T00:51:48.549Z,99.90
2018-09-30T00:54:17.086Z,99.90
2018-09-30T00:56:45.657Z,99.90
2018-09-30T00:59:14.213Z,99.90
2018-09-30T01:01:43.040Z,99.90
2018-09-30T01:04:11.621Z,99.90
2018-09-30T01:06:40.194Z,99.90
2018-09-30T01:09:11.162Z,99.90
2018-09-30T01:11:39.717Z,99.90
2018-09-30T01:14:08.418Z,99.90
2018-09-30T01:16:37.213Z,99.90
2018-09-30T01:19:05.874Z,99.90
2018-09-30T01:21:34.659Z,99.90
2018-09-30T01:24:03.286Z,99.90
2018-09-30T01:26:31.790Z,99.90
2018-09-30T01:29:00.647Z,99.90
2018-09-30T01:31:29.158Z,99.90
2018-09-30T01:33:58.648Z,99.90
2018-09-30T01:36:27.164Z,99.90
2018-09-30T01:38:55.713Z,99.90
2018-09-30T01:41:24.359Z,99.90
2018-09-30T01:43:52.905Z,99.90
2018-09-30T01:46:21.416Z,99.90
2018-09-30T01:48:49.958Z,99.90
2018-09-30T01:51:18.501Z,99.90
2018-09-30T01:53:47.042Z,99.90
2018-09-30T01:56:15.545Z,99.90
2018-09-30T01:58:44.085Z,99.90
2018-09-30T02:01:12.609Z,99.90
2018-09-30T02:03:41.156Z,99.90
2018-09-30T02:06:09.698Z,99.90
2018-09-30T02:08:38.316Z,99.90
2018-09-30T02:11:07.050Z,99.90
2018-09-30T02:13:35.597Z,99.90
2018-09-30T02:16:04.109Z,99.90
2018-09-30T02:18:32.683Z,99.90
2018-09-30T02:21:01.198Z,99.90
2018-09-30T02:23:29.763Z,99.90
2018-09-30T02:25:58.278Z,99.90
2018-09-30T02:28:26.817Z,99.90
2018-09-30T02:30:55.338Z,99.90
2018-09-30T02:33:23.894Z,99.90
2018-09-30T02:35:52.455Z,99.90
2018-09-30T02:38:21.019Z,99.90
2018-09-30T02:40:49.569Z,99.90
2018-09-30T02:43:18.111Z,99.90
2018-09-30T02:45:46.621Z,99.90
2018-09-30T02:48:15.161Z,99.90
2018-09-30T02:50:43.679Z,99.90
2018-09-30T02:53:12.229Z,99.90
2018-09-30T02:55:40.742Z,99.90
2018-09-30T02:58:09.295Z,99.90
2018-09-30T03:00:37.857Z,99.90
2018-09-30T03:03:06.401Z,99.90
2018-09-30T03:05:34.942Z,99.90
2018-09-30T03:08:08.884Z,99.90
2018-09-30T03:10:37.418Z,99.90
2018-09-30T03:13:05.946Z,99.90
2018-09-30T03:15:34.493Z,99.90
2018-09-30T03:18:03.053Z,99.90
2018-09-30T03:20:31.616Z,99.90
2018-09-30T03:23:00.166Z,99.90
2018-09-30T03:25:28.717Z,99.90
2018-09-30T03:27:57.255Z,99.90
2018-09-30T03:30:25.803Z,99.90
2018-09-30T03:32:54.333Z,99.90
2018-09-30T03:35:22.885Z,99.90
2018-09-30T03:37:51.794Z,99.90
2018-09-30T03:40:20.338Z,99.90
2018-09-30T03:42:48.842Z,99.90
2018-09-30T03:45:17.609Z,99.90
2018-09-30T03:47:46.125Z,99.90
2018-09-30T03:50:14.674Z,99.90
2018-09-30T03:52:43.190Z,99.90
2018-09-30T03:55:11.741Z,99.90
2018-09-30T03:57:40.262Z,99.90
2018-09-30T04:00:08.817Z,99.90
2018-09-30T04:02:37.334Z,99.90
2018-09-30T04:05:05.910Z,99.90
2018-09-30T04:07:34.433Z,99.90
2018-09-30T04:10:03.143Z,99.90
2018-09-30T04:12:31.537Z,99.90
2018-09-30T04:15:00.208Z,99.90
2018-09-30T04:17:28.785Z,99.90
2018-09-30T04:19:57.320Z,99.90
2018-09-30T04:22:25.849Z,99.90
2018-09-30T04:24:54.494Z,99.90
2018-09-30T04:27:23.021Z,99.90
2018-09-30T04:29:51.584Z,99.90
2018-09-30T04:32:20.117Z,99.90
2018-09-30T04:34:48.677Z,99.90
2018-09-30T04:37:17.206Z,99.90
2018-09-30T04:39:45.731Z,99.90
2018-09-30T04:42:14.366Z,99.90
2018-09-30T04:44:42.894Z,99.90
2018-09-30T04:47:11.446Z,99.90
2018-09-30T04:49:39.982Z,99.90
2018-09-30T04:52:08.554Z,99.90
2018-09-30T04:54:37.096Z,99.90
2018-09-30T04:57:05.641Z,99.90
2018-09-30T04:59:34.167Z,99.90
2018-09-30T05:02:02.781Z,99.90
2018-09-30T05:04:31.371Z,99.90
2018-09-30T05:06:59.928Z,99.90
2018-09-30T05:09:28.449Z,99.90
2018-09-30T05:11:57.008Z,99.90
2018-09-30T05:14:25.609Z,99.90
2018-09-30T05:16:54.494Z,99.90
2018-09-30T05:19:23.071Z,99.90
2018-09-30T05:21:51.636Z,99.90
2018-09-30T05:24:20.230Z,99.90
2018-09-30T05:26:48.829Z,99.90
2018-09-30T05:29:17.356Z,99.90
2018-09-30T05:31:45.905Z,99.90
2018-09-30T05:34:14.446Z,99.90
2018-09-30T05:36:43.001Z,99.90
2018-09-30T05:39:12.149Z,99.90
2018-09-30T05:41:40.748Z,99.90
2018-09-30T05:44:09.528Z,99.90
2018-09-30T05:46:38.348Z,99.90
2018-09-30T05:49:07.370Z,99.90
2018-09-30T05:51:35.902Z,99.90
2018-09-30T05:54:04.441Z,99.90
2018-09-30T05:56:32.989Z,99.90
2018-09-30T05:59:01.515Z,99.90
2018-09-30T06:01:30.857Z,99.90
2018-09-30T06:03:59.492Z,99.90
2018-09-30T06:06:28.937Z,99.90
2018-09-30T06:08:57.476Z,99.90
2018-09-30T06:11:26.045Z,99.90
2018-09-30T06:13:54.606Z,99.90
2018-09-30T06:16:23.142Z,99.90
2018-09-30T06:18:51.693Z,99.90
2018-09-30T06:21:20.257Z,99.90
2018-09-30T06:23:48.795Z,99.90
2018-09-30T06:26:17.325Z,99.90
2018-09-30T06:28:45.871Z,99.90
2018-09-30T06:31:14.421Z,99.90
2018-09-30T06:33:42.977Z,99.90
2018-09-30T06:36:11.509Z,99.90
2018-09-30T06:38:40.076Z,99.90
2018-09-30T06:41:09.470Z,99.90
2018-09-30T06:43:38.027Z,99.90
2018-09-30T06:46:06.563Z,99.90
2018-09-30T06:48:35.126Z,99.90
2018-09-30T06:51:03.709Z,99.90
2018-09-30T06:53:32.275Z,99.90
2018-09-30T06:56:00.807Z,99.90
2018-09-30T06:58:29.415Z,99.90
2018-09-30T07:00:58.015Z,99.90
2018-09-30T07:03:26.623Z,99.90
2018-09-30T07:05:55.153Z,99.90
2018-09-30T07:08:23.705Z,99.90
2018-09-30T07:10:52.336Z,99.90
2018-09-30T07:13:20.869Z,99.90
2018-09-30T07:15:49.393Z,99.90
2018-09-30T07:18:17.954Z,99.90
2018-09-30T07:20:46.457Z,99.90
2018-09-30T07:23:15.192Z,99.90
2018-09-30T07:25:43.762Z,99.90
2018-09-30T07:28:18.782Z,99.90
2018-09-30T07:30:47.325Z,99.90
2018-09-30T07:33:16.095Z,99.90
2018-09-30T07:35:44.597Z,99.90
2018-09-30T07:38:13.128Z,99.90
2018-09-30T07:40:41.640Z,99.90
2018-09-30T07:43:10.180Z,99.90
2018-09-30T07:45:38.715Z,99.90
2018-09-30T07:48:07.286Z,99.90
2018-09-30T07:50:35.815Z,99.90
2018-09-30T07:53:04.378Z,99.90
2018-09-30T07:55:32.902Z,99.90
2018-09-30T07:58:01.438Z,99.90
2018-09-30T08:00:29.961Z,99.90
2018-09-30T08:02:58.481Z,99.90
2018-09-30T08:05:27.027Z,99.90
2018-09-30T08:07:55.525Z,99.90
2018-09-30T08:10:24.089Z,99.90
2018-09-30T08:12:52.651Z,99.90
2018-09-30T08:15:21.217Z,99.90
2018-09-30T08:17:49.757Z,99.90
2018-09-30T08:20:18.378Z,99.90
2018-09-30T08:22:48.612Z,99.90
2018-09-30T08:25:17.208Z,99.90
2018-09-30T08:27:45.741Z,99.90
2018-09-30T08:30:14.295Z,99.90
2018-09-30T08:32:42.866Z,99.90
2018-09-30T08:35:11.466Z,99.90
2018-09-30T08:37:45.261Z,99.90
2018-09-30T08:40:17.448Z,99.90
2018-09-30T08:42:45.969Z,99.90
2018-09-30T08:45:14.554Z,99.90
2018-09-30T08:47:43.161Z,99.90
2018-09-30T08:50:11.664Z,99.90
2018-09-30T08:52:40.185Z,99.90
2018-09-30T08:55:08.746Z,99.90
2018-09-30T08:57:37.274Z,99.90
2018-09-30T09:00:05.913Z,99.90
2018-09-30T09:02:34.478Z,99.90
2018-09-30T09:05:03.654Z,99.90
2018-09-30T09:07:32.197Z,99.90
2018-09-30T09:10:00.753Z,99.90
2018-09-30T09:12:29.382Z,99.90
2018-09-30T09:14:57.942Z,99.90
2018-09-30T09:17:26.461Z,99.90
2018-09-30T09:19:55.165Z,99.90
2018-09-30T09:22:23.692Z,99.90
2018-09-30T09:24:52.258Z,99.90
2018-09-30T09:27:20.787Z,99.90
2018-09-30T09:29:50.028Z,99.90
2018-09-30T09:32:18.541Z,99.90
2018-09-30T09:34:47.107Z,99.90
2018-09-30T09:37:15.625Z,99.90
2018-09-30T09:39:44.336Z,99.90
2018-09-30T09:42:12.914Z,99.90
2018-09-30T09:44:41.461Z,99.90
2018-09-30T09:47:10.056Z,99.90
2018-09-30T09:49:38.606Z,99.90
2018-09-30T09:52:07.169Z,99.90
2018-09-30T09:54:36.089Z,99.90
2018-09-30T09:57:04.631Z,99.90
2018-09-30T09:59:33.221Z,99.90
2018-09-30T10:02:01.850Z,99.90
2018-09-30T10:04:30.396Z,99.90
2018-09-30T10:06:59.568Z,99.90
2018-09-30T10:09:28.162Z,99.90
2018-09-30T10:11:56.748Z,99.90
2018-09-30T10:14:25.503Z,99.90
2018-09-30T10:16:54.589Z,99.90
2018-09-30T10:19:23.237Z,99.90
2018-09-30T10:21:51.759Z,99.90
2018-09-30T10:24:20.272Z,99.90
2018-09-30T10:26:48.809Z,99.90
2018-09-30T10:29:17.318Z,99.90
2018-09-30T10:31:45.933Z,99.90
2018-09-30T10:34:14.448Z,99.90
2018-09-30T10:36:42.995Z,99.90
2018-09-30T10:39:12.114Z,99.90
2018-09-30T10:41:41.098Z,99.90
2018-09-30T10:44:10.070Z,99.90
2018-09-30T10:46:38.638Z,99.90
2018-09-30T10:49:07.505Z,99.90
2018-09-30T10:51:36.045Z,99.90
2018-09-30T10:54:04.578Z,99.90
2018-09-30T10:56:33.122Z,99.90
2018-09-30T10:59:01.662Z,99.90
2018-09-30T11:01:30.310Z,99.90
2018-09-30T11:03:58.842Z,99.90
2018-09-30T11:06:27.526Z,99.90
2018-09-30T11:08:56.583Z,99.90
2018-09-30T11:11:25.398Z,99.90
2018-09-30T11:13:54.034Z,99.90
2018-09-30T11:16:22.911Z,99.90
2018-09-30T11:18:51.549Z,99.90
2018-09-30T11:21:20.138Z,99.90
2018-09-30T11:23:48.666Z,99.90
2018-09-30T11:26:17.278Z,99.90
2018-09-30T11:28:45.796Z,99.90
2018-09-30T11:31:14.466Z,99.90
2018-09-30T11:33:43.002Z,99.90
2018-09-30T11:36:11.557Z,99.90
2018-09-30T11:38:40.084Z,99.90
2018-09-30T11:41:08.682Z,99.90
2018-09-30T11:43:37.250Z,99.90
2018-09-30T11:46:05.791Z,99.90
2018-09-30T11:48:34.357Z,99.90
2018-09-30T11:51:03.530Z,99.90
2018-09-30T11:53:32.091Z,99.90
2018-09-30T11:56:00.620Z,99.90
2018-09-30T11:58:29.172Z,99.90
2018-09-30T12:00:57.739Z,99.90
2018-09-30T12:03:26.338Z,99.60
2018-09-30T12:05:54.861Z,99.50
2018-09-30T12:08:23.418Z,99.40
2018-09-30T12:10:51.962Z,99.60
2018-09-30T12:13:20.550Z,99.50
2018-09-30T12:15:49.085Z,99.20
2018-09-30T12:18:17.652Z,98.90
2018-09-30T12:20:46.163Z,98.70
2018-09-30T12:23:14.706Z,98.70
2018-09-30T12:25:43.377Z,98.90
2018-09-30T12:28:11.890Z,98.40
2018-09-30T12:30:40.418Z,98.70
2018-09-30T12:33:08.968Z,98.50
2018-09-30T12:35:37.488Z,98.10
2018-09-30T12:38:06.034Z,98.00
2018-09-30T12:40:34.561Z,98.00
2018-09-30T12:43:03.097Z,98.20
2018-09-30T12:45:31.742Z,98.20
2018-09-30T12:48:00.285Z,98.10
2018-09-30T12:50:28.798Z,98.00
2018-09-30T12:52:57.337Z,97.90
2018-09-30T12:55:25.858Z,97.40
2018-09-30T12:57:54.449Z,97.40
2018-09-30T13:00:22.966Z,97.50
2018-09-30T13:02:51.526Z,97.30
2018-09-30T13:05:20.128Z,97.20
2018-09-30T13:07:48.642Z,97.60
2018-09-30T13:10:17.202Z,97.70
2018-09-30T13:12:45.801Z,97.70
2018-09-30T13:15:14.341Z,97.50
2018-09-30T13:17:42.861Z,97.40
2018-09-30T13:20:11.433Z,97.20
2018-09-30T13:22:40.198Z,97.40
2018-09-30T13:25:08.760Z,97.40
2018-09-30T13:27:37.285Z,97.40
2018-09-30T13:30:06.077Z,97.40
2018-09-30T13:32:34.628Z,97.30
2018-09-30T13:35:03.185Z,97.10
2018-09-30T13:37:33.048Z,97.10
2018-09-30T13:40:01.603Z,97.50
2018-09-30T13:42:32.189Z,97.50
2018-09-30T13:45:00.977Z,97.20
2018-09-30T13:47:31.219Z,96.80
2018-09-30T13:49:59.958Z,97.20
2018-09-30T13:52:32.034Z,97.40
2018-09-30T13:55:00.649Z,97.80
2018-09-30T13:57:29.173Z,97.60
2018-09-30T13:59:57.749Z,97.50
2018-09-30T14:02:26.313Z,97.60
2018-09-30T14:04:55.434Z,97.50
2018-09-30T14:07:23.978Z,97.50
2018-09-30T14:09:52.581Z,97.40
2018-09-30T14:12:21.217Z,97.80
2018-09-30T14:14:49.794Z,97.90
2018-09-30T14:17:18.409Z,98.10
2018-09-30T14:19:46.985Z,98.20
2018-09-30T14:22:15.492Z,98.20
2018-09-30T14:24:45.044Z,98.20
2018-09-30T14:27:13.668Z,97.90
2018-09-30T14:29:42.232Z,98.20
2018-09-30T14:32:10.761Z,98.00
2018-09-30T14:34:39.517Z,98.20
2018-09-30T14:37:08.057Z,98.50
2018-09-30T14:39:36.624Z,98.60
2018-09-30T14:42:05.229Z,98.60
2018-09-30T14:44:33.777Z,98.30
2018-09-30T14:47:02.341Z,98.40
2018-09-30T14:49:30.889Z,98.30
2018-09-30T14:51:59.426Z,98.30
2018-09-30T14:54:28.164Z,98.40
2018-09-30T14:56:56.646Z,98.60
2018-09-30T14:59:25.249Z,98.20
2018-09-30T15:01:53.797Z,98.70
2018-09-30T15:04:22.413Z,99.10
2018-09-30T15:06:50.977Z,99.00
2018-09-30T15:09:19.526Z,98.90
2018-09-30T15:11:48.139Z,99.10
2018-09-30T15:14:16.657Z,99.20
2018-09-30T15:16:45.218Z,99.20
2018-09-30T15:19:13.765Z,99.00
2018-09-30T15:21:42.678Z,99.10
2018-09-30T15:24:11.212Z,99.50
2018-09-30T15:26:39.761Z,99.40
2018-09-30T15:29:08.295Z,99.50
2018-09-30T15:31:36.858Z,99.60
2018-09-30T15:34:06.412Z,99.50
2018-09-30T15:36:34.994Z,99.50
2018-09-30T15:39:05.124Z,99.80
2018-09-30T15:41:33.730Z,99.90
2018-09-30T15:44:02.343Z,99.90
2018-09-30T15:46:31.397Z,99.90
2018-09-30T15:49:00.099Z,99.90
2018-09-30T15:51:28.822Z,99.90
2018-09-30T15:53:57.569Z,99.90
2018-09-30T15:56:26.137Z,99.90
2018-09-30T15:58:54.680Z,99.90
2018-09-30T16:01:23.472Z,99.90
2018-09-30T16:03:52.407Z,99.90
2018-09-30T16:06:21.019Z,99.90
2018-09-30T16:08:49.813Z,99.90
2018-09-30T16:11:18.377Z,99.90
2018-09-30T16:13:46.925Z,99.90
2018-09-30T16:16:15.490Z,99.90
2018-09-30T16:18:44.048Z,99.90
2018-09-30T16:21:13.009Z,99.90
2018-09-30T16:23:41.833Z,99.90
2018-09-30T16:26:10.398Z,99.90
2018-09-30T16:28:38.953Z,99.90
2018-09-30T16:31:07.541Z,99.90
2018-09-30T16:33:36.272Z,99.90
2018-09-30T16:36:04.873Z,99.90
2018-09-30T16:38:33.446Z,99.90
2018-09-30T16:41:02.013Z,99.90
2018-09-30T16:43:30.551Z,99.90
2018-09-30T16:45:59.296Z,99.90
2018-09-30T16:48:27.881Z,99.90
2018-09-30T16:50:56.456Z,99.90
2018-09-30T16:53:24.985Z,99.90
2018-09-30T16:55:53.544Z,99.90
2018-09-30T16:58:22.066Z,99.90
2018-09-30T17:00:50.789Z,99.90
2018-09-30T17:03:19.323Z,99.90
2018-09-30T17:05:47.870Z,99.90
2018-09-30T17:08:16.439Z,99.90
2018-09-30T17:10:45.078Z,99.90
2018-09-30T17:13:14.026Z,99.90
2018-09-30T17:15:42.619Z,99.90
2018-09-30T17:18:11.194Z,99.90
2018-09-30T17:20:39.743Z,99.90
2018-09-30T17:23:08.297Z,99.90
2018-09-30T17:25:36.944Z,99.90
2018-09-30T17:28:05.497Z,99.90
2018-09-30T17:30:34.006Z,99.90
2018-09-30T17:33:02.557Z,99.90
2018-09-30T17:35:31.085Z,99.90
2018-09-30T17:37:59.959Z,99.90
2018-09-30T17:40:28.437Z,99.90
2018-09-30T17:42:56.961Z,99.90
2018-09-30T17:45:25.494Z,99.90
2018-09-30T17:47:54.081Z,99.90
2018-09-30T17:50:22.636Z,99.90
2018-09-30T17:52:51.659Z,99.90
2018-09-30T17:55:20.173Z,99.90
2018-09-30T17:57:48.742Z,99.90
2018-09-30T18:00:17.287Z,99.90
2018-09-30T18:02:46.439Z,99.90
2018-09-30T18:05:14.960Z,99.90
2018-09-30T18:07:43.538Z,99.90
2018-09-30T18:10:12.064Z,99.90
2018-09-30T18:12:40.750Z,99.90
2018-09-30T18:15:09.390Z,99.90
2018-09-30T18:17:38.038Z,99.90
2018-09-30T18:20:07.648Z,99.90
2018-09-30T18:22:36.244Z,99.90
2018-09-30T18:25:04.828Z,99.90
2018-09-30T18:27:34.120Z,99.90
2018-09-30T18:30:02.694Z,99.90
2018-09-30T18:32:31.254Z,99.90
2018-09-30T18:34:59.934Z,99.90
2018-09-30T18:37:28.501Z,99.90
2018-09-30T18:39:57.081Z,99.90
2018-09-30T18:42:25.661Z,99.90
2018-09-30T18:44:54.185Z,99.90
2018-09-30T18:47:22.762Z,99.90
2018-09-30T18:49:51.299Z,99.90
2018-09-30T18:52:19.854Z,99.90
2018-09-30T18:54:48.377Z,99.90
2018-09-30T18:57:17.041Z,99.90
2018-09-30T18:59:45.609Z,99.90
2018-09-30T19:02:14.201Z,99.90
2018-09-30T19:04:42.765Z,99.90
2018-09-30T19:07:11.313Z,99.90
2018-09-30T19:09:39.854Z,99.90
2018-09-30T19:12:08.810Z,99.90
2018-09-30T19:14:37.298Z,99.90
2018-09-30T19:17:05.848Z,99.90
2018-09-30T19:19:34.429Z,99.90
2018-09-30T19:22:02.961Z,99.90
2018-09-30T19:24:31.522Z,99.90
2018-09-30T19:27:00.054Z,99.90
2018-09-30T19:29:28.769Z,99.90
2018-09-30T19:31:57.547Z,99.90
2018-09-30T19:34:26.133Z,99.90
2018-09-30T19:36:54.662Z,99.90
2018-09-30T19:39:23.224Z,99.90
2018-09-30T19:41:51.831Z,99.90
2018-09-30T19:44:20.454Z,99.90
2018-09-30T19:46:48.993Z,99.90
2018-09-30T19:49:17.564Z,99.90
2018-09-30T19:51:46.126Z,99.90
2018-09-30T19:54:14.670Z,99.90
2018-09-30T19:56:43.245Z,99.90
2018-09-30T19:59:11.802Z,99.90
2018-09-30T20:01:40.434Z,99.90
2018-09-30T20:04:08.990Z,99.90
2018-09-30T20:06:37.542Z,99.90
2018-09-30T20:09:07.666Z,99.90
2018-09-30T20:11:36.409Z,99.90
2018-09-30T20:14:04.971Z,99.90
2018-09-30T20:16:33.741Z,99.90
2018-09-30T20:19:02.346Z,99.90
2018-09-30T20:21:30.901Z,99.90
2018-09-30T20:23:59.460Z,99.90
2018-09-30T20:26:28.072Z,99.90
2018-09-30T20:28:56.598Z,99.90
2018-09-30T20:31:25.953Z,99.90
2018-09-30T20:33:55.301Z,99.90
2018-09-30T20:36:23.913Z,99.90
2018-09-30T20:38:52.445Z,99.90
2018-09-30T20:41:21.033Z,99.90
2018-09-30T20:43:49.946Z,99.90
2018-09-30T20:46:18.864Z,99.90
2018-09-30T20:48:47.412Z,99.90
2018-09-30T20:51:15.979Z,99.90
2018-09-30T20:53:44.517Z,99.90
2018-09-30T20:56:13.113Z,99.90
2018-09-30T20:58:41.649Z,99.90
2018-09-30T21:01:10.194Z,99.90
2018-09-30T21:03:38.965Z,99.90
2018-09-30T21:06:15.131Z,99.90
2018-09-30T21:08:44.809Z,99.90
2018-09-30T21:11:13.357Z,99.90
2018-09-30T21:13:42.281Z,99.90
2018-09-30T21:16:10.833Z,99.90
2018-09-30T21:18:39.405Z,99.90
2018-09-30T21:21:07.911Z,99.90
2018-09-30T21:23:36.451Z,99.90
2018-09-30T21:26:05.005Z,99.90
2018-09-30T21:28:33.529Z,99.90
2018-09-30T21:31:02.097Z,99.90
2018-09-30T21:33:30.658Z,99.90
2018-09-30T21:35:59.199Z,99.90
2018-09-30T21:38:27.713Z,99.90
2018-09-30T21:40:56.378Z,99.90
2018-09-30T21:43:24.892Z,99.90
2018-09-30T21:45:53.434Z,99.90
2018-09-30T21:48:22.164Z,99.90
2018-09-30T21:50:50.706Z,99.90
2018-09-30T21:53:19.537Z,99.90
2018-09-30T21:55:48.078Z,99.90
2018-09-30T21:58:16.594Z,99.90
2018-09-30T22:00:50.518Z,99.90
2018-09-30T22:03:19.046Z,99.90
2018-09-30T22:05:47.590Z,99.90
2018-09-30T22:08:16.097Z,99.90
2018-09-30T22:10:45.438Z,99.90
2018-09-30T22:13:14.285Z,99.90
2018-09-30T22:15:43.071Z,99.90
2018-09-30T22:18:11.849Z,99.90
2018-09-30T22:20:40.454Z,99.90
2018-09-30T22:23:09.041Z,99.90
2018-09-30T22:25:37.596Z,99.90
2018-09-30T22:28:06.197Z,99.90
2018-09-30T22:30:34.853Z,99.90
2018-09-30T22:33:03.857Z,99.90
2018-09-30T22:35:32.517Z,99.90
2018-09-30T22:38:01.045Z,99.90
2018-09-30T22:40:29.606Z,99.90
2018-09-30T22:42:58.394Z,99.90
2018-09-30T22:45:26.988Z,99.90
2018-09-30T22:47:55.550Z,99.90
2018-09-30T22:50:24.149Z,99.90
2018-09-30T22:52:52.714Z,99.90
2018-09-30T22:55:21.274Z,99.90
2018-09-30T22:57:49.815Z,99.90
2018-09-30T23:00:18.398Z,99.90
2018-09-30T23:02:46.936Z,99.90
2018-09-30T23:05:15.493Z,99.90
2018-09-30T23:07:44.026Z,99.90
2018-09-30T23:10:13.373Z,99.90
2018-09-30T23:12:42.124Z,99.90
2018-09-30T23:15:11.038Z,99.90
2018-09-30T23:17:39.635Z,99.90
2018-09-30T23:20:13.566Z,99.90
2018-09-30T23:22:42.300Z,99.90
2018-09-30T23:25:11.045Z,99.90
2018-09-30T23:27:39.569Z,99.90
2018-09-30T23:30:08.285Z,99.90
2018-09-30T23:32:37.373Z,99.90
2018-09-30T23:35:05.937Z,99.90
2018-09-30T23:37:34.466Z,99.90
2018-09-30T23:40:03.249Z,99.90
2018-09-30T23:42:31.779Z,99.90
2018-09-30T23:45:00.320Z,99.90
2018-09-30T23:47:28.825Z,99.90
2018-09-30T23:49:57.355Z,99.90
2018-09-30T23:52:25.862Z,99.90
2018-09-30T23:54:54.400Z,99.90
2018-09-30T23:57:22.938Z,99.90
2018-09-30T23:59:51.457Z,99.90
